sensor_id;sensor_type;location;lat;lon;timestamp;temperature;humidity
13174;DHT22;6652;48.802;9.190;2023-05-14T00:01:02;13.00;99.90
13174;DHT22;6652;48.802;9.190;2023-05-14T00:03:29;12.90;99.90
13174;DHT22;6652;48.802;9.190;2023-05-14T00:05:56;12.90;99.90
13174;DHT22;6652;48.802;9.190;2023-05-14T00:08:23;13.00;99.90
13174;DHT22;6652;48.802;9.190;2023-05-14T00:10:50;12.90;99.90
13174;DHT22;6652;48.802;9.190;2023-05-14T00:13:16;12.90;99.90
13174;DHT22;6652;48.802;9.190;2023-05-14T00:15:44;12.80;99.90
13174;DHT22;6652;48.802;9.190;2023-05-14T00:18:11;12.90;99.90
13174;DHT22;6652;48.802;9.190;2023-05-14T00:20:38;12.80;99.90
13174;DHT22;6652;48.802;9.190;2023-05-14T00:23:05;12.80;99.90
13174;DHT22;6652;48.802;9.190;2023-05-14T00:25:32;12.70;99.90
13174;DHT22;6652;48.802;9.190;2023-05-14T00:27:59;12.70;99.90
13174;DHT22;6652;48.802;9.190;2023-05-14T00:30:26;12.70;99.90
13174;DHT22;6652;48.802;9.190;2023-05-14T00:32:54;12.70;99.90
13174;DHT22;6652;48.802;9.190;2023-05-14T00:35:21;12.60;99.90
13174;DHT22;6652;48.802;9.190;2023-05-14T00:37:48;12.50;99.90
13174;DHT22;6652;48.802;9.190;2023-05-14T00:40:15;12.50;99.90
13174;DHT22;6652;48.802;9.190;2023-05-14T00:42:42;12.50;99.90
13174;DHT22;6652;48.802;9.190;2023-05-14T00:45:09;12.40;99.90
13174;DHT22;6652;48.802;9.190;2023-05-14T00:47:36;12.40;99.90
13174;DHT22;6652;48.802;9.190;2023-05-14T00:50:06;12.40;99.90
13174;DHT22;6652;48.802;9.190;2023-05-14T00:52:33;12.30;99.90
13174;DHT22;6652;48.802;9.190;2023-05-14T00:55:03;12.20;99.90
13174;DHT22;6652;48.802;9.190;2023-05-14T00:57:30;12.20;99.90
13174;DHT22;6652;48.802;9.190;2023-05-14T01:00:02;12.10;99.90
13174;DHT22;6652;48.802;9.190;2023-05-14T01:02:29;12.10;99.90
13174;DHT22;6652;48.802;9.190;2023-05-14T01:04:56;12.00;99.90
13174;DHT22;6652;48.802;9.190;2023-05-14T01:07:30;12.00;99.90
13174;DHT22;6652;48.802;9.190;2023-05-14T01:10:02;11.90;99.90
13174;DHT22;6652;48.802;9.190;2023-05-14T01:12:35;11.80;99.90
13174;DHT22;6652;48.802;9.190;2023-05-14T01:15:09;11.80;99.90
13174;DHT22;6652;48.802;9.190;2023-05-14T01:20:08;11.70;99.90
13174;DHT22;6652;48.802;9.190;2023-05-14T01:22:37;11.70;99.90
13174;DHT22;6652;48.802;9.190;2023-05-14T01:25:04;11.60;99.90
13174;DHT22;6652;48.802;9.190;2023-05-14T01:27:36;11.60;99.90
13174;DHT22;6652;48.802;9.190;2023-05-14T01:30:08;11.50;99.90
13174;DHT22;6652;48.802;9.190;2023-05-14T01:32:39;11.60;99.90
13174;DHT22;6652;48.802;9.190;2023-05-14T01:35:08;11.60;99.90
13174;DHT22;6652;48.802;9.190;2023-05-14T01:37:37;11.50;99.90
13174;DHT22;6652;48.802;9.190;2023-05-14T01:40:06;11.50;99.90
13174;DHT22;6652;48.802;9.190;2023-05-14T01:42:33;11.50;99.90
13174;DHT22;6652;48.802;9.190;2023-05-14T01:45:01;11.40;99.90
13174;DHT22;6652;48.802;9.190;2023-05-14T01:47:28;11.40;99.90
13174;DHT22;6652;48.802;9.190;2023-05-14T01:49:55;11.40;99.90
13174;DHT22;6652;48.802;9.190;2023-05-14T01:52:22;11.30;99.90
13174;DHT22;6652;48.802;9.190;2023-05-14T01:54:50;11.30;99.90
13174;DHT22;6652;48.802;9.190;2023-05-14T01:57:17;11.30;99.90
13174;DHT22;6652;48.802;9.190;2023-05-14T01:59:43;11.30;99.90
13174;DHT22;6652;48.802;9.190;2023-05-14T02:02:10;11.20;99.90
13174;DHT22;6652;48.802;9.190;2023-05-14T02:04:37;11.20;99.90
13174;DHT22;6652;48.802;9.190;2023-05-14T02:07:04;11.10;99.90
13174;DHT22;6652;48.802;9.190;2023-05-14T02:09:31;11.10;99.90
13174;DHT22;6652;48.802;9.190;2023-05-14T02:11:59;11.10;99.90
13174;DHT22;6652;48.802;9.190;2023-05-14T02:14:26;11.10;99.90
13174;DHT22;6652;48.802;9.190;2023-05-14T02:16:52;11.10;99.90
13174;DHT22;6652;48.802;9.190;2023-05-14T02:19:19;11.10;99.90
13174;DHT22;6652;48.802;9.190;2023-05-14T02:21:47;11.10;99.90
13174;DHT22;6652;48.802;9.190;2023-05-14T02:24:13;11.10;99.90
13174;DHT22;6652;48.802;9.190;2023-05-14T02:26:40;11.10;99.90
13174;DHT22;6652;48.802;9.190;2023-05-14T02:29:08;11.20;99.90
13174;DHT22;6652;48.802;9.190;2023-05-14T02:31:36;11.10;99.90
13174;DHT22;6652;48.802;9.190;2023-05-14T02:34:03;11.20;99.90
13174;DHT22;6652;48.802;9.190;2023-05-14T02:36:31;11.20;99.90
13174;DHT22;6652;48.802;9.190;2023-05-14T02:38:58;11.20;99.90
13174;DHT22;6652;48.802;9.190;2023-05-14T02:41:25;11.20;99.90
13174;DHT22;6652;48.802;9.190;2023-05-14T02:43:52;11.20;99.90
13174;DHT22;6652;48.802;9.190;2023-05-14T02:46:20;11.20;99.90
13174;DHT22;6652;48.802;9.190;2023-05-14T02:48:47;11.20;99.90
13174;DHT22;6652;48.802;9.190;2023-05-14T02:51:14;11.20;99.90
13174;DHT22;6652;48.802;9.190;2023-05-14T02:53:41;11.20;99.90
13174;DHT22;6652;48.802;9.190;2023-05-14T02:56:08;11.30;99.90
13174;DHT22;6652;48.802;9.190;2023-05-14T02:58:34;11.20;99.90
13174;DHT22;6652;48.802;9.190;2023-05-14T03:01:01;11.20;99.90
13174;DHT22;6652;48.802;9.190;2023-05-14T03:03:30;11.20;99.90
13174;DHT22;6652;48.802;9.190;2023-05-14T03:05:57;11.20;99.90
13174;DHT22;6652;48.802;9.190;2023-05-14T03:08:23;11.20;99.90
13174;DHT22;6652;48.802;9.190;2023-05-14T03:10:50;11.30;99.90
13174;DHT22;6652;48.802;9.190;2023-05-14T03:13:17;11.30;99.90
13174;DHT22;6652;48.802;9.190;2023-05-14T03:15:45;11.30;99.90
13174;DHT22;6652;48.802;9.190;2023-05-14T03:18:12;11.30;99.90
13174;DHT22;6652;48.802;9.190;2023-05-14T03:20:40;11.30;99.90
13174;DHT22;6652;48.802;9.190;2023-05-14T03:23:07;11.30;99.90
13174;DHT22;6652;48.802;9.190;2023-05-14T03:25:34;11.30;99.90
13174;DHT22;6652;48.802;9.190;2023-05-14T03:28:01;11.30;99.90
13174;DHT22;6652;48.802;9.190;2023-05-14T03:30:28;11.30;99.90
13174;DHT22;6652;48.802;9.190;2023-05-14T03:32:54;11.30;99.90
13174;DHT22;6652;48.802;9.190;2023-05-14T03:35:21;11.30;99.90
13174;DHT22;6652;48.802;9.190;2023-05-14T03:37:49;11.30;99.90
13174;DHT22;6652;48.802;9.190;2023-05-14T03:40:17;11.30;99.90
13174;DHT22;6652;48.802;9.190;2023-05-14T03:42:44;11.30;99.90
13174;DHT22;6652;48.802;9.190;2023-05-14T03:45:11;11.30;99.90
13174;DHT22;6652;48.802;9.190;2023-05-14T03:47:37;11.40;99.90
13174;DHT22;6652;48.802;9.190;2023-05-14T03:50:05;11.40;99.90
13174;DHT22;6652;48.802;9.190;2023-05-14T03:52:33;11.40;99.90
13174;DHT22;6652;48.802;9.190;2023-05-14T03:55:01;11.40;99.90
13174;DHT22;6652;48.802;9.190;2023-05-14T03:57:27;11.50;99.90
13174;DHT22;6652;48.802;9.190;2023-05-14T03:59:54;11.40;99.90
13174;DHT22;6652;48.802;9.190;2023-05-14T04:02:21;11.40;99.90
13174;DHT22;6652;48.802;9.190;2023-05-14T04:04:48;11.40;99.90
13174;DHT22;6652;48.802;9.190;2023-05-14T04:07:15;11.50;99.90
13174;DHT22;6652;48.802;9.190;2023-05-14T04:09:41;11.50;99.90
13174;DHT22;6652;48.802;9.190;2023-05-14T04:12:10;11.50;99.90
13174;DHT22;6652;48.802;9.190;2023-05-14T04:14:36;11.50;99.90
13174;DHT22;6652;48.802;9.190;2023-05-14T04:17:03;11.50;99.90
13174;DHT22;6652;48.802;9.190;2023-05-14T04:19:30;11.60;99.90
13174;DHT22;6652;48.802;9.190;2023-05-14T05:10:42;11.70;99.90
13174;DHT22;6652;48.802;9.190;2023-05-14T06:45:54;13.50;99.90
13174;DHT22;6652;48.802;9.190;2023-05-14T07:02:03;13.80;99.90
13174;DHT22;6652;48.802;9.190;2023-05-14T07:05:04;13.90;99.90
13174;DHT22;6652;48.802;9.190;2023-05-14T07:08:11;14.00;99.90
13174;DHT22;6652;48.802;9.190;2023-05-14T07:10:41;14.10;99.90
13174;DHT22;6652;48.802;9.190;2023-05-14T07:13:08;14.20;99.90
13174;DHT22;6652;48.802;9.190;2023-05-14T07:15:35;14.30;99.90
13174;DHT22;6652;48.802;9.190;2023-05-14T07:18:03;14.30;99.90
13174;DHT22;6652;48.802;9.190;2023-05-14T07:20:30;14.40;99.90
13174;DHT22;6652;48.802;9.190;2023-05-14T07:22:56;14.50;99.90
13174;DHT22;6652;48.802;9.190;2023-05-14T07:25:23;14.60;99.90
13174;DHT22;6652;48.802;9.190;2023-05-14T07:27:50;14.70;99.90
13174;DHT22;6652;48.802;9.190;2023-05-14T07:30:17;14.80;99.90
13174;DHT22;6652;48.802;9.190;2023-05-14T07:32:44;14.90;99.90
13174;DHT22;6652;48.802;9.190;2023-05-14T07:38:08;15.40;99.90
13174;DHT22;6652;48.802;9.190;2023-05-14T07:40:35;15.50;99.90
13174;DHT22;6652;48.802;9.190;2023-05-14T07:43:02;15.90;99.90
13174;DHT22;6652;48.802;9.190;2023-05-14T07:45:29;16.00;99.90
13174;DHT22;6652;48.802;9.190;2023-05-14T07:47:56;16.40;99.90
13174;DHT22;6652;48.802;9.190;2023-05-14T07:50:24;16.70;99.90
13174;DHT22;6652;48.802;9.190;2023-05-14T07:52:51;17.10;99.90
13174;DHT22;6652;48.802;9.190;2023-05-14T07:55:18;17.70;99.90
13174;DHT22;6652;48.802;9.190;2023-05-14T07:57:45;18.50;99.90
13174;DHT22;6652;48.802;9.190;2023-05-14T08:00:13;19.10;99.90
13174;DHT22;6652;48.802;9.190;2023-05-14T08:02:40;19.90;99.90
13174;DHT22;6652;48.802;9.190;2023-05-14T08:05:07;21.60;99.90
13174;DHT22;6652;48.802;9.190;2023-05-14T08:07:36;22.60;99.90
13174;DHT22;6652;48.802;9.190;2023-05-14T08:10:03;24.00;99.90
13174;DHT22;6652;48.802;9.190;2023-05-14T08:12:32;25.20;99.90
13174;DHT22;6652;48.802;9.190;2023-05-14T08:14:58;26.00;99.90
13174;DHT22;6652;48.802;9.190;2023-05-14T08:17:25;26.70;99.90
13174;DHT22;6652;48.802;9.190;2023-05-14T08:19:53;26.00;98.50
13174;DHT22;6652;48.802;9.190;2023-05-14T08:22:19;24.80;98.40
13174;DHT22;6652;48.802;9.190;2023-05-14T08:24:48;23.50;98.60
13174;DHT22;6652;48.802;9.190;2023-05-14T08:27:15;22.90;99.90
13174;DHT22;6652;48.802;9.190;2023-05-14T08:29:42;22.20;99.90
13174;DHT22;6652;48.802;9.190;2023-05-14T08:32:11;21.70;99.90
13174;DHT22;6652;48.802;9.190;2023-05-14T08:34:38;21.50;99.90
13174;DHT22;6652;48.802;9.190;2023-05-14T08:37:05;21.60;99.90
13174;DHT22;6652;48.802;9.190;2023-05-14T08:39:32;21.80;99.90
13174;DHT22;6652;48.802;9.190;2023-05-14T08:42:01;22.00;99.90
13174;DHT22;6652;48.802;9.190;2023-05-14T08:44:46;22.10;99.90
13174;DHT22;6652;48.802;9.190;2023-05-14T08:47:23;22.70;99.90
13174;DHT22;6652;48.802;9.190;2023-05-14T08:49:54;22.90;99.90
13174;DHT22;6652;48.802;9.190;2023-05-14T08:52:22;23.00;99.90
13174;DHT22;6652;48.802;9.190;2023-05-14T08:54:50;23.30;99.90
13174;DHT22;6652;48.802;9.190;2023-05-14T08:57:20;24.10;99.90
13174;DHT22;6652;48.802;9.190;2023-05-14T08:59:49;25.10;99.30
13174;DHT22;6652;48.802;9.190;2023-05-14T09:02:16;26.30;97.10
13174;DHT22;6652;48.802;9.190;2023-05-14T09:04:46;26.40;95.00
13174;DHT22;6652;48.802;9.190;2023-05-14T09:07:13;25.40;94.50
13174;DHT22;6652;48.802;9.190;2023-05-14T09:09:40;24.60;95.70
13174;DHT22;6652;48.802;9.190;2023-05-14T09:12:09;24.70;95.40
13174;DHT22;6652;48.802;9.190;2023-05-14T09:14:37;24.40;96.00
13174;DHT22;6652;48.802;9.190;2023-05-14T09:17:04;23.70;97.00
13174;DHT22;6652;48.802;9.190;2023-05-14T09:19:31;23.40;97.20
13174;DHT22;6652;48.802;9.190;2023-05-14T09:21:58;23.00;96.90
13174;DHT22;6652;48.802;9.190;2023-05-14T09:24:26;22.40;97.80
13174;DHT22;6652;48.802;9.190;2023-05-14T09:26:57;22.70;98.40
13174;DHT22;6652;48.802;9.190;2023-05-14T09:29:28;24.40;99.10
13174;DHT22;6652;48.802;9.190;2023-05-14T09:31:59;25.70;95.70
13174;DHT22;6652;48.802;9.190;2023-05-14T09:34:30;25.90;93.40
13174;DHT22;6652;48.802;9.190;2023-05-14T09:36:58;26.20;94.10
13174;DHT22;6652;48.802;9.190;2023-05-14T09:39:26;27.40;93.10
13174;DHT22;6652;48.802;9.190;2023-05-14T09:41:53;28.00;89.90
13174;DHT22;6652;48.802;9.190;2023-05-14T09:44:20;28.10;89.10
13174;DHT22;6652;48.802;9.190;2023-05-14T09:46:48;26.90;88.40
13174;DHT22;6652;48.802;9.190;2023-05-14T09:49:17;26.40;90.30
13174;DHT22;6652;48.802;9.190;2023-05-14T09:51:44;26.00;88.50
13174;DHT22;6652;48.802;9.190;2023-05-14T09:54:13;25.10;89.90
13174;DHT22;6652;48.802;9.190;2023-05-14T09:56:42;24.10;90.40
13174;DHT22;6652;48.802;9.190;2023-05-14T09:59:10;23.30;91.40
13174;DHT22;6652;48.802;9.190;2023-05-14T10:01:44;22.60;92.70
13174;DHT22;6652;48.802;9.190;2023-05-14T10:04:13;22.20;93.90
13174;DHT22;6652;48.802;9.190;2023-05-14T10:06:50;21.70;94.70
13174;DHT22;6652;48.802;9.190;2023-05-14T10:09:20;21.30;95.70
13174;DHT22;6652;48.802;9.190;2023-05-14T10:11:59;21.10;96.40
13174;DHT22;6652;48.802;9.190;2023-05-14T10:14:37;20.90;96.80
13174;DHT22;6652;48.802;9.190;2023-05-14T10:17:18;20.50;97.00
13174;DHT22;6652;48.802;9.190;2023-05-14T10:20:02;20.00;97.80
13174;DHT22;6652;48.802;9.190;2023-05-14T10:30:21;21.30;97.90
13174;DHT22;6652;48.802;9.190;2023-05-14T10:32:48;22.10;97.00
13174;DHT22;6652;48.802;9.190;2023-05-14T10:35:16;22.50;96.50
13174;DHT22;6652;48.802;9.190;2023-05-14T10:37:45;22.50;96.10
13174;DHT22;6652;48.802;9.190;2023-05-14T10:40:12;22.50;96.10
13174;DHT22;6652;48.802;9.190;2023-05-14T10:42:39;22.50;96.70
13174;DHT22;6652;48.802;9.190;2023-05-14T10:45:09;22.50;95.50
13174;DHT22;6652;48.802;9.190;2023-05-14T10:47:39;22.10;95.80
13174;DHT22;6652;48.802;9.190;2023-05-14T10:50:09;21.70;96.10
13174;DHT22;6652;48.802;9.190;2023-05-14T10:52:36;21.60;96.60
13174;DHT22;6652;48.802;9.190;2023-05-14T10:55:04;22.30;97.70
13174;DHT22;6652;48.802;9.190;2023-05-14T10:57:34;22.00;96.40
13174;DHT22;6652;48.802;9.190;2023-05-14T11:00:02;21.80;96.40
13174;DHT22;6652;48.802;9.190;2023-05-14T11:02:33;21.20;97.20
13174;DHT22;6652;48.802;9.190;2023-05-14T11:05:04;20.40;98.60
13174;DHT22;6652;48.802;9.190;2023-05-14T11:07:34;20.00;99.20
13174;DHT22;6652;48.802;9.190;2023-05-14T11:10:03;19.90;99.90
13174;DHT22;6652;48.802;9.190;2023-05-14T11:12:30;19.80;99.90
13174;DHT22;6652;48.802;9.190;2023-05-14T11:15:01;19.90;99.90
13174;DHT22;6652;48.802;9.190;2023-05-14T11:17:33;20.20;99.90
13174;DHT22;6652;48.802;9.190;2023-05-14T11:20:02;20.70;99.90
13174;DHT22;6652;48.802;9.190;2023-05-14T11:25:50;21.80;97.90
13174;DHT22;6652;48.802;9.190;2023-05-14T11:28:31;21.40;99.10
13174;DHT22;6652;48.802;9.190;2023-05-14T11:31:03;21.70;98.20
13174;DHT22;6652;48.802;9.190;2023-05-14T11:33:30;21.60;97.90
13174;DHT22;6652;48.802;9.190;2023-05-14T11:35:58;22.70;98.70
13174;DHT22;6652;48.802;9.190;2023-05-14T11:38:25;21.90;97.50
13174;DHT22;6652;48.802;9.190;2023-05-14T11:40:53;22.10;97.90
13174;DHT22;6652;48.802;9.190;2023-05-14T11:43:20;21.40;96.90
13174;DHT22;6652;48.802;9.190;2023-05-14T11:45:48;21.90;98.00
13174;DHT22;6652;48.802;9.190;2023-05-14T11:48:16;21.20;98.00
13174;DHT22;6652;48.802;9.190;2023-05-14T11:50:44;21.10;97.60
13174;DHT22;6652;48.802;9.190;2023-05-14T11:53:17;21.50;98.30
13174;DHT22;6652;48.802;9.190;2023-05-14T11:55:44;20.90;98.40
13174;DHT22;6652;48.802;9.190;2023-05-14T11:58:11;20.50;98.70
13174;DHT22;6652;48.802;9.190;2023-05-14T12:00:38;20.20;99.20
13174;DHT22;6652;48.802;9.190;2023-05-14T12:03:06;20.40;99.50
13174;DHT22;6652;48.802;9.190;2023-05-14T12:05:36;20.30;98.40
13174;DHT22;6652;48.802;9.190;2023-05-14T12:08:20;20.40;98.90
13174;DHT22;6652;48.802;9.190;2023-05-14T12:10:47;20.50;99.90
13174;DHT22;6652;48.802;9.190;2023-05-14T12:13:15;20.50;99.90
13174;DHT22;6652;48.802;9.190;2023-05-14T12:15:44;20.40;99.90
13174;DHT22;6652;48.802;9.190;2023-05-14T12:18:12;20.40;99.90
13174;DHT22;6652;48.802;9.190;2023-05-14T12:20:46;20.70;99.90
13174;DHT22;6652;48.802;9.190;2023-05-14T12:23:13;20.80;99.90
13174;DHT22;6652;48.802;9.190;2023-05-14T12:29:04;20.20;99.00
13174;DHT22;6652;48.802;9.190;2023-05-14T12:31:46;19.90;99.60
13174;DHT22;6652;48.802;9.190;2023-05-14T12:34:24;20.00;99.90
13174;DHT22;6652;48.802;9.190;2023-05-14T12:37:22;20.30;99.90
13174;DHT22;6652;48.802;9.190;2023-05-14T12:39:49;20.70;99.90
13174;DHT22;6652;48.802;9.190;2023-05-14T12:42:31;21.00;99.70
13174;DHT22;6652;48.802;9.190;2023-05-14T12:45:00;21.10;98.00
13174;DHT22;6652;48.802;9.190;2023-05-14T12:47:29;20.90;97.60
13174;DHT22;6652;48.802;9.190;2023-05-14T12:49:56;20.50;97.50
13174;DHT22;6652;48.802;9.190;2023-05-14T12:52:23;20.50;98.00
13174;DHT22;6652;48.802;9.190;2023-05-14T12:54:51;20.40;98.20
13174;DHT22;6652;48.802;9.190;2023-05-14T12:57:18;20.20;98.40
13174;DHT22;6652;48.802;9.190;2023-05-14T12:59:45;21.10;98.90
13174;DHT22;6652;48.802;9.190;2023-05-14T13:02:13;20.60;98.50
13174;DHT22;6652;48.802;9.190;2023-05-14T13:04:48;21.20;97.10
13174;DHT22;6652;48.802;9.190;2023-05-14T13:07:14;21.30;97.80
13174;DHT22;6652;48.802;9.190;2023-05-14T13:09:41;21.50;96.60
13174;DHT22;6652;48.802;9.190;2023-05-14T13:12:08;21.60;97.00
13174;DHT22;6652;48.802;9.190;2023-05-14T13:14:35;21.90;96.20
13174;DHT22;6652;48.802;9.190;2023-05-14T13:17:03;21.80;95.90
13174;DHT22;6652;48.802;9.190;2023-05-14T13:19:36;21.40;96.50
13174;DHT22;6652;48.802;9.190;2023-05-14T13:22:10;20.90;96.80
13174;DHT22;6652;48.802;9.190;2023-05-14T13:24:37;20.60;97.50
13174;DHT22;6652;48.802;9.190;2023-05-14T13:27:04;20.30;98.30
13174;DHT22;6652;48.802;9.190;2023-05-14T13:29:31;20.00;99.50
13174;DHT22;6652;48.802;9.190;2023-05-14T13:31:58;19.80;99.80
13174;DHT22;6652;48.802;9.190;2023-05-14T13:34:25;19.70;99.80
13174;DHT22;6652;48.802;9.190;2023-05-14T13:36:53;19.80;99.90
13174;DHT22;6652;48.802;9.190;2023-05-14T13:39:20;19.60;99.90
13174;DHT22;6652;48.802;9.190;2023-05-14T13:41:51;19.60;99.90
13174;DHT22;6652;48.802;9.190;2023-05-14T13:44:18;19.50;99.90
13174;DHT22;6652;48.802;9.190;2023-05-14T13:46:45;19.50;99.80
13174;DHT22;6652;48.802;9.190;2023-05-14T13:49:12;20.00;99.90
13174;DHT22;6652;48.802;9.190;2023-05-14T13:51:38;19.90;99.20
13174;DHT22;6652;48.802;9.190;2023-05-14T13:54:07;19.70;98.30
13174;DHT22;6652;48.802;9.190;2023-05-14T13:56:33;19.70;98.90
13174;DHT22;6652;48.802;9.190;2023-05-14T13:59:00;19.70;99.70
13174;DHT22;6652;48.802;9.190;2023-05-14T14:01:27;19.80;99.60
13174;DHT22;6652;48.802;9.190;2023-05-14T14:03:55;19.70;99.40
13174;DHT22;6652;48.802;9.190;2023-05-14T14:06:22;19.70;99.60
13174;DHT22;6652;48.802;9.190;2023-05-14T14:08:48;19.40;99.50
13174;DHT22;6652;48.802;9.190;2023-05-14T14:11:17;19.40;99.10
13174;DHT22;6652;48.802;9.190;2023-05-14T14:13:44;19.50;99.40
13174;DHT22;6652;48.802;9.190;2023-05-14T14:16:10;19.50;99.70
13174;DHT22;6652;48.802;9.190;2023-05-14T14:18:37;19.50;98.90
13174;DHT22;6652;48.802;9.190;2023-05-14T14:21:04;19.40;99.20
13174;DHT22;6652;48.802;9.190;2023-05-14T14:23:31;19.60;98.60
13174;DHT22;6652;48.802;9.190;2023-05-14T14:25:58;19.80;97.60
13174;DHT22;6652;48.802;9.190;2023-05-14T14:28:26;19.50;97.40
13174;DHT22;6652;48.802;9.190;2023-05-14T14:30:53;19.40;97.40
13174;DHT22;6652;48.802;9.190;2023-05-14T14:33:20;18.90;97.70
13174;DHT22;6652;48.802;9.190;2023-05-14T14:35:47;19.10;98.20
13174;DHT22;6652;48.802;9.190;2023-05-14T14:38:13;19.20;98.80
13174;DHT22;6652;48.802;9.190;2023-05-14T14:40:40;19.10;99.20
13174;DHT22;6652;48.802;9.190;2023-05-14T14:43:07;19.50;99.10
13174;DHT22;6652;48.802;9.190;2023-05-14T14:45:35;19.60;98.50
13174;DHT22;6652;48.802;9.190;2023-05-14T14:48:22;19.30;98.10
13174;DHT22;6652;48.802;9.190;2023-05-14T14:50:49;19.40;98.10
13174;DHT22;6652;48.802;9.190;2023-05-14T14:53:17;19.50;97.40
13174;DHT22;6652;48.802;9.190;2023-05-14T14:55:44;20.10;97.20
13174;DHT22;6652;48.802;9.190;2023-05-14T14:58:10;19.70;96.70
13174;DHT22;6652;48.802;9.190;2023-05-14T15:00:39;19.90;97.10
13174;DHT22;6652;48.802;9.190;2023-05-14T15:03:06;20.20;96.10
13174;DHT22;6652;48.802;9.190;2023-05-14T15:05:33;20.30;95.60
13174;DHT22;6652;48.802;9.190;2023-05-14T15:08:00;20.50;95.80
13174;DHT22;6652;48.802;9.190;2023-05-14T15:10:27;20.90;95.80
13174;DHT22;6652;48.802;9.190;2023-05-14T15:12:56;21.20;95.70
13174;DHT22;6652;48.802;9.190;2023-05-14T15:15:23;21.30;95.30
13174;DHT22;6652;48.802;9.190;2023-05-14T15:17:51;21.00;95.50
13174;DHT22;6652;48.802;9.190;2023-05-14T15:20:18;20.60;95.40
13174;DHT22;6652;48.802;9.190;2023-05-14T15:22:45;20.10;96.60
13174;DHT22;6652;48.802;9.190;2023-05-14T15:25:12;19.80;97.30
13174;DHT22;6652;48.802;9.190;2023-05-14T15:27:39;19.20;99.90
13174;DHT22;6652;48.802;9.190;2023-05-14T15:30:07;18.40;99.90
13174;DHT22;6652;48.802;9.190;2023-05-14T15:32:35;17.90;99.90
13174;DHT22;6652;48.802;9.190;2023-05-14T15:35:08;17.50;99.90
13174;DHT22;6652;48.802;9.190;2023-05-14T15:37:36;17.10;99.90
13174;DHT22;6652;48.802;9.190;2023-05-14T15:40:04;16.90;99.90
13174;DHT22;6652;48.802;9.190;2023-05-14T15:42:32;16.90;99.90
13174;DHT22;6652;48.802;9.190;2023-05-14T15:44:59;16.80;99.90
13174;DHT22;6652;48.802;9.190;2023-05-14T15:47:26;17.40;99.90
13174;DHT22;6652;48.802;9.190;2023-05-14T15:49:53;17.00;99.90
13174;DHT22;6652;48.802;9.190;2023-05-14T15:52:22;17.50;99.90
13174;DHT22;6652;48.802;9.190;2023-05-14T15:54:50;18.40;99.90
13174;DHT22;6652;48.802;9.190;2023-05-14T15:57:18;17.20;99.90
13174;DHT22;6652;48.802;9.190;2023-05-14T15:59:46;17.40;99.90
13174;DHT22;6652;48.802;9.190;2023-05-14T16:02:13;17.40;99.90
13174;DHT22;6652;48.802;9.190;2023-05-14T16:04:40;17.50;99.90
13174;DHT22;6652;48.802;9.190;2023-05-14T16:07:09;18.30;99.90
13174;DHT22;6652;48.802;9.190;2023-05-14T16:09:38;17.80;99.90
13174;DHT22;6652;48.802;9.190;2023-05-14T16:12:06;17.90;99.90
13174;DHT22;6652;48.802;9.190;2023-05-14T16:14:34;18.00;99.90
13174;DHT22;6652;48.802;9.190;2023-05-14T16:17:03;18.10;99.90
13174;DHT22;6652;48.802;9.190;2023-05-14T16:19:30;18.10;99.90
13174;DHT22;6652;48.802;9.190;2023-05-14T16:21:57;18.10;99.90
13174;DHT22;6652;48.802;9.190;2023-05-14T16:27:53;18.30;99.90
13174;DHT22;6652;48.802;9.190;2023-05-14T16:33:43;18.30;99.90
13174;DHT22;6652;48.802;9.190;2023-05-14T16:36:10;19.50;99.90
13174;DHT22;6652;48.802;9.190;2023-05-14T16:38:54;18.60;99.90
13174;DHT22;6652;48.802;9.190;2023-05-14T16:41:37;19.00;99.90
13174;DHT22;6652;48.802;9.190;2023-05-14T16:47:20;18.50;99.90
13174;DHT22;6652;48.802;9.190;2023-05-14T16:49:47;18.40;99.90
13174;DHT22;6652;48.802;9.190;2023-05-14T16:52:14;18.50;99.90
13174;DHT22;6652;48.802;9.190;2023-05-14T16:54:41;18.60;99.90
13174;DHT22;6652;48.802;9.190;2023-05-14T16:57:07;19.80;99.90
13174;DHT22;6652;48.802;9.190;2023-05-14T16:59:34;18.60;99.90
13174;DHT22;6652;48.802;9.190;2023-05-14T17:02:01;18.60;99.90
13174;DHT22;6652;48.802;9.190;2023-05-14T17:04:29;18.60;99.90
13174;DHT22;6652;48.802;9.190;2023-05-14T17:06:57;18.50;99.90
13174;DHT22;6652;48.802;9.190;2023-05-14T17:09:26;18.20;99.90
13174;DHT22;6652;48.802;9.190;2023-05-14T17:11:52;18.00;99.90
13174;DHT22;6652;48.802;9.190;2023-05-14T17:14:19;18.30;99.90
13174;DHT22;6652;48.802;9.190;2023-05-14T17:16:47;18.10;99.90
13174;DHT22;6652;48.802;9.190;2023-05-14T17:19:14;18.60;99.90
13174;DHT22;6652;48.802;9.190;2023-05-14T17:21:42;17.50;99.90
13174;DHT22;6652;48.802;9.190;2023-05-14T17:24:09;17.90;99.90
13174;DHT22;6652;48.802;9.190;2023-05-14T17:29:48;17.00;99.90
13174;DHT22;6652;48.802;9.190;2023-05-14T17:32:16;17.50;99.90
13174;DHT22;6652;48.802;9.190;2023-05-14T17:34:45;17.20;99.90
13174;DHT22;6652;48.802;9.190;2023-05-14T17:37:14;17.60;99.90
13174;DHT22;6652;48.802;9.190;2023-05-14T17:39:41;16.80;99.90
13174;DHT22;6652;48.802;9.190;2023-05-14T17:42:08;16.90;99.90
13174;DHT22;6652;48.802;9.190;2023-05-14T17:44:35;16.80;99.90
13174;DHT22;6652;48.802;9.190;2023-05-14T17:47:02;18.30;99.90
13174;DHT22;6652;48.802;9.190;2023-05-14T17:49:31;16.70;99.90
13174;DHT22;6652;48.802;9.190;2023-05-14T17:51:58;17.00;99.90
13174;DHT22;6652;48.802;9.190;2023-05-14T17:54:26;16.00;99.90
13174;DHT22;6652;48.802;9.190;2023-05-14T17:56:53;16.90;99.90
13174;DHT22;6652;48.802;9.190;2023-05-14T17:59:24;16.60;99.90
13174;DHT22;6652;48.802;9.190;2023-05-14T18:01:52;16.50;99.90
13174;DHT22;6652;48.802;9.190;2023-05-14T18:04:19;16.60;99.90
13174;DHT22;6652;48.802;9.190;2023-05-14T18:06:59;16.50;99.90
13174;DHT22;6652;48.802;9.190;2023-05-14T18:09:28;16.50;99.90
13174;DHT22;6652;48.802;9.190;2023-05-14T18:11:55;16.40;99.90
13174;DHT22;6652;48.802;9.190;2023-05-14T18:14:22;16.30;99.90
13174;DHT22;6652;48.802;9.190;2023-05-14T18:16:49;17.00;99.90
13174;DHT22;6652;48.802;9.190;2023-05-14T18:19:16;16.90;99.90
13174;DHT22;6652;48.802;9.190;2023-05-14T18:21:43;16.70;99.90
13174;DHT22;6652;48.802;9.190;2023-05-14T18:24:12;16.00;99.90
13174;DHT22;6652;48.802;9.190;2023-05-14T18:26:40;16.60;99.90
13174;DHT22;6652;48.802;9.190;2023-05-14T18:29:07;17.00;99.90
13174;DHT22;6652;48.802;9.190;2023-05-14T18:31:34;17.00;99.90
13174;DHT22;6652;48.802;9.190;2023-05-14T18:34:01;15.80;99.90
13174;DHT22;6652;48.802;9.190;2023-05-14T18:36:28;15.90;99.90
13174;DHT22;6652;48.802;9.190;2023-05-14T18:38:55;15.60;99.90
13174;DHT22;6652;48.802;9.190;2023-05-14T18:41:24;15.60;99.90
13174;DHT22;6652;48.802;9.190;2023-05-14T18:43:53;16.90;99.90
13174;DHT22;6652;48.802;9.190;2023-05-14T18:46:20;15.40;99.90
13174;DHT22;6652;48.802;9.190;2023-05-14T18:48:50;15.40;99.90
13174;DHT22;6652;48.802;9.190;2023-05-14T18:51:17;15.20;99.90
13174;DHT22;6652;48.802;9.190;2023-05-14T18:53:44;15.80;99.90
13174;DHT22;6652;48.802;9.190;2023-05-14T18:56:10;15.90;99.90
13174;DHT22;6652;48.802;9.190;2023-05-14T18:58:37;15.20;99.90
13174;DHT22;6652;48.802;9.190;2023-05-14T19:04:27;14.90;99.90